Airport Name : Cameri

Other Name : Cameri

ICAO : LIMN

IATA :

FAA :

Latitude : 45.529592

Longitude : 8.669225

Country : Italy

Local Date and Time : 11/20/2018 10:59:00 PM

 

TAF (Terminal Aerodrome Forecast)

TAF LIMN 201700Z 2018/2103 VRB03KT 3000 BR FEW015 BKN050 TEMPO 2018/2103 1500 BR

 

METAR (METeorological Aerodrome Report)